Terminal Aerodrome Forecast
Issued by NWS

Home | Current Version | Previous Version | Text Only | Print | Product List | Glossary On
Versions: 1 2 3 4 5 6 7 8 9 10 11 12 13 14 15 16 17
000
FTUS41 KGYX 260541
TAFAUG
TAF
KAUG 260541Z 2606/2706 20007KT P6SM OVC090
      TEMPO 2606/2609 -SHRA
     FM261500 22010G20KT P6SM BKN120
     FM270000 22008KT P6SM SCT200=

USA.gov is the U.S. government's official web portal to all federal, state and local government web resources and services.